Terminal Aerodrome Forecast
Issued by NWS Tallahassee, FL

Current Version | Previous Version | Text Only | Print | Product List | Glossary On
Versions: 1 2 3 4 5 6 7 8 9 10 11 12 13 14
312
FTUS42 KTAE 071735
TAFTLH
TAF
KTLH 071735Z 0718/0818 34012G16KT P6SM SKC
     FM080100 VRB03KT P6SM SKC
     FM081500 27012G25KT P6SM BKN250=

USA.gov is the U.S. government's official web portal to all federal, state and local government web resources and services.